createdAt,value
2019-06-26T00:01:35.668Z,99.90
2019-06-26T00:04:05.410Z,99.90
2019-06-26T00:06:34.957Z,99.90
2019-06-26T00:09:08.195Z,99.90
2019-06-26T00:11:38.037Z,99.90
2019-06-26T00:14:07.605Z,99.90
2019-06-26T00:16:37.138Z,99.90
2019-06-26T00:19:06.770Z,99.90
2019-06-26T00:21:36.591Z,99.90
2019-06-26T00:24:06.093Z,99.90
2019-06-26T00:26:35.676Z,99.90
2019-06-26T00:29:05.877Z,99.90
2019-06-26T00:31:35.818Z,99.90
2019-06-26T00:34:05.966Z,99.90
2019-06-26T00:36:35.877Z,99.90
2019-06-26T00:39:07.149Z,99.90
2019-06-26T00:41:37.013Z,99.90
2019-06-26T00:44:06.481Z,99.90
2019-06-26T00:46:36.055Z,99.90
2019-06-26T00:49:05.907Z,99.90
2019-06-26T00:51:35.658Z,99.90
2019-06-26T00:54:05.759Z,99.90
2019-06-26T00:56:35.860Z,99.90
2019-06-26T00:59:05.849Z,99.90
2019-06-26T01:01:35.786Z,99.90
2019-06-26T01:04:10.261Z,99.90
2019-06-26T01:06:43.086Z,99.90
2019-06-26T01:09:13.520Z,99.90
2019-06-26T01:11:44.584Z,99.90
2019-06-26T01:14:14.043Z,99.90
2019-06-26T01:16:43.933Z,99.90
2019-06-26T01:19:13.528Z,99.90
2019-06-26T01:21:43.147Z,99.90
2019-06-26T01:24:12.674Z,99.90
2019-06-26T01:26:42.545Z,99.90
2019-06-26T01:29:11.799Z,99.90
2019-06-26T01:31:41.336Z,99.90
2019-06-26T01:34:10.928Z,99.90
2019-06-26T01:36:40.590Z,99.90
2019-06-26T01:39:09.871Z,99.90
2019-06-26T01:41:39.533Z,99.90
2019-06-26T01:44:14.598Z,99.90
2019-06-26T01:46:40.641Z,99.90
2019-06-26T01:49:09.946Z,99.90
2019-06-26T01:51:39.573Z,99.90
2019-06-26T01:54:09.264Z,99.90
2019-06-26T01:56:38.824Z,99.90
2019-06-26T01:59:08.243Z,99.90
2019-06-26T02:01:37.795Z,99.90
2019-06-26T02:04:07.387Z,99.90
2019-06-26T02:06:37.012Z,99.90
2019-06-26T02:09:06.674Z,99.90
2019-06-26T02:11:36.618Z,99.90
2019-06-26T02:14:06.040Z,99.90
2019-06-26T02:16:35.653Z,99.90
2019-06-26T02:19:07.188Z,99.90
2019-06-26T02:21:36.899Z,99.90
2019-06-26T02:24:06.522Z,99.90
2019-06-26T02:26:36.141Z,99.90
2019-06-26T02:29:06.059Z,99.90
2019-06-26T02:31:35.681Z,99.90
2019-06-26T02:34:05.950Z,99.90
2019-06-26T02:36:35.821Z,99.90
2019-06-26T02:39:07.229Z,99.90
2019-06-26T02:41:36.931Z,99.90
2019-06-26T02:44:06.433Z,99.90
2019-06-26T02:46:36.042Z,99.90
2019-06-26T02:49:05.342Z,99.90
2019-06-26T02:51:35.002Z,99.90
2019-06-26T02:54:05.773Z,99.90
2019-06-26T02:56:36.124Z,99.90
2019-06-26T02:59:05.976Z,99.90
2019-06-26T03:01:35.561Z,99.90
2019-06-26T03:04:05.802Z,99.90
2019-06-26T03:06:37.479Z,99.90
2019-06-26T03:09:07.946Z,99.90
2019-06-26T03:11:37.951Z,99.90
2019-06-26T03:14:08.224Z,99.90
2019-06-26T03:16:37.808Z,99.90
2019-06-26T03:19:07.557Z,99.90
2019-06-26T03:21:37.253Z,99.90
2019-06-26T03:24:06.838Z,99.90
2019-06-26T03:26:36.411Z,99.90
2019-06-26T03:29:06.391Z,99.90
2019-06-26T03:31:35.964Z,99.90
2019-06-26T03:34:06.043Z,99.90
2019-06-26T03:36:35.786Z,99.90
2019-06-26T03:39:12.866Z,99.90
2019-06-26T03:41:42.589Z,99.90
2019-06-26T03:44:11.965Z,99.90
2019-06-26T03:46:41.707Z,99.90
2019-06-26T03:49:11.378Z,99.90
2019-06-26T03:51:41.119Z,99.90
2019-06-26T03:54:10.784Z,99.90
2019-06-26T03:56:40.394Z,99.90
2019-06-26T03:59:10.061Z,99.90
2019-06-26T04:01:40.055Z,99.90
2019-06-26T04:04:09.997Z,99.90
2019-06-26T04:06:39.929Z,99.90
2019-06-26T04:09:19.802Z,99.90
2019-06-26T04:11:49.768Z,99.90
2019-06-26T04:14:19.638Z,99.90
2019-06-26T04:16:49.727Z,99.90
2019-06-26T04:19:19.660Z,99.90
2019-06-26T04:21:50.445Z,99.90
2019-06-26T04:24:19.976Z,99.90
2019-06-26T04:26:49.601Z,99.90
2019-06-26T04:29:19.246Z,99.90
2019-06-26T04:31:48.837Z,99.90
2019-06-26T04:34:18.199Z,99.90
2019-06-26T04:36:47.818Z,99.90
2019-06-26T04:39:17.799Z,99.90
2019-06-26T04:41:47.439Z,99.90
2019-06-26T04:44:17.131Z,99.90
2019-06-26T04:46:46.865Z,99.90
2019-06-26T04:49:16.186Z,99.90
2019-06-26T04:51:45.810Z,99.90
2019-06-26T04:54:15.430Z,99.90
2019-06-26T04:56:45.034Z,99.90
2019-06-26T04:59:14.677Z,99.90
2019-06-26T05:01:44.619Z,99.90
2019-06-26T05:04:14.007Z,99.90
2019-06-26T05:06:43.701Z,99.90
2019-06-26T05:09:13.699Z,99.90
2019-06-26T05:11:43.267Z,99.90
2019-06-26T05:14:12.934Z,99.90
2019-06-26T05:16:42.820Z,99.90
2019-06-26T05:19:12.296Z,99.90
2019-06-26T05:21:41.928Z,99.90
2019-06-26T05:24:11.944Z,99.90
2019-06-26T05:26:41.643Z,99.90
2019-06-26T05:29:11.340Z,99.90
2019-06-26T05:31:41.007Z,99.90
2019-06-26T05:34:11.227Z,99.90
2019-06-26T05:36:40.907Z,99.90
2019-06-26T05:39:10.528Z,99.90
2019-06-26T05:41:40.261Z,99.90
2019-06-26T05:44:09.799Z,99.90
2019-06-26T05:46:39.760Z,99.90
2019-06-26T05:49:09.858Z,99.90
2019-06-26T05:51:39.652Z,99.90
2019-06-26T05:54:09.256Z,99.90
2019-06-26T05:56:38.861Z,99.90
2019-06-26T05:59:21.541Z,99.90
2019-06-26T06:01:51.260Z,99.90
2019-06-26T06:04:20.981Z,99.90
2019-06-26T06:06:50.899Z,99.90
2019-06-26T06:09:20.253Z,99.90
2019-06-26T06:11:49.819Z,99.90
2019-06-26T06:14:19.420Z,99.90
2019-06-26T06:16:49.016Z,99.90
2019-06-26T06:19:18.633Z,99.90
2019-06-26T06:21:48.760Z,99.90
2019-06-26T06:24:18.359Z,99.90
2019-06-26T06:26:47.853Z,99.90
2019-06-26T06:29:17.623Z,99.90
2019-06-26T06:31:47.135Z,99.90
2019-06-26T06:34:17.031Z,99.90
2019-06-26T06:36:46.572Z,99.90
2019-06-26T06:39:16.049Z,99.90
2019-06-26T06:41:45.586Z,99.90
2019-06-26T06:44:15.254Z,99.90
2019-06-26T06:46:44.795Z,99.90
2019-06-26T06:49:14.105Z,99.90
2019-06-26T06:51:43.942Z,99.90
2019-06-26T06:54:13.496Z,99.90
2019-06-26T06:56:46.519Z,99.90
2019-06-26T06:59:15.890Z,99.90
2019-06-26T07:01:45.488Z,99.90
2019-06-26T07:04:15.032Z,99.90
2019-06-26T07:06:44.683Z,99.90
2019-06-26T07:09:13.981Z,99.90
2019-06-26T07:11:43.610Z,99.90
2019-06-26T07:14:13.249Z,99.90
2019-06-26T07:16:42.818Z,99.90
2019-06-26T07:19:12.262Z,99.90
2019-06-26T07:21:41.741Z,99.90
2019-06-26T07:24:11.301Z,99.90
2019-06-26T07:26:40.914Z,99.90
2019-06-26T07:29:10.302Z,99.90
2019-06-26T07:31:39.878Z,99.90
2019-06-26T07:34:09.498Z,99.90
2019-06-26T07:36:39.061Z,99.90
2019-06-26T07:39:08.807Z,99.90
2019-06-26T07:41:38.522Z,99.90
2019-06-26T07:44:07.878Z,99.90
2019-06-26T07:46:37.429Z,99.90
2019-06-26T07:49:06.994Z,99.90
2019-06-26T07:51:36.645Z,99.90
2019-06-26T07:54:06.041Z,99.90
2019-06-26T07:56:35.598Z,99.90
2019-06-26T07:59:06.665Z,99.90
2019-06-26T08:01:36.547Z,99.90
2019-06-26T08:04:06.302Z,99.90
2019-06-26T08:06:35.891Z,99.90
2019-06-26T08:09:07.537Z,99.90
2019-06-26T08:11:37.126Z,99.90
2019-06-26T08:14:06.771Z,99.90
2019-06-26T08:16:36.392Z,99.90
2019-06-26T08:19:06.444Z,99.90
2019-06-26T08:21:36.004Z,99.90
2019-06-26T08:24:05.891Z,99.90
2019-06-26T08:26:35.478Z,99.90
2019-06-26T08:29:05.753Z,99.90
2019-06-26T08:31:35.663Z,99.90
2019-06-26T08:34:05.786Z,99.90
2019-06-26T08:36:35.636Z,99.90
2019-06-26T08:39:07.021Z,99.90
2019-06-26T08:41:36.669Z,99.90
2019-06-26T08:46:35.582Z,99.90
2019-06-26T08:49:05.962Z,99.90
2019-06-26T08:51:35.868Z,99.90
2019-06-26T08:54:06.003Z,99.90
2019-06-26T08:56:35.949Z,99.90
2019-06-26T08:59:06.082Z,99.90
2019-06-26T09:01:35.665Z,99.90
2019-06-26T09:04:05.648Z,99.90
2019-06-26T09:06:35.495Z,99.90
2019-06-26T09:09:07.420Z,99.90
2019-06-26T09:11:37.039Z,99.90
2019-06-26T09:14:06.588Z,99.90
2019-06-26T09:16:36.126Z,99.90
2019-06-26T09:21:36.685Z,99.90
2019-06-26T09:26:35.607Z,99.90
2019-06-26T09:29:05.923Z,99.90
2019-06-26T09:31:35.839Z,99.90
2019-06-26T09:34:06.010Z,99.90
2019-06-26T09:36:35.894Z,99.90
2019-06-26T09:39:07.523Z,99.90
2019-06-26T09:41:37.176Z,99.90
2019-06-26T09:44:06.729Z,99.90
2019-06-26T09:46:36.370Z,99.90
2019-06-26T09:49:05.975Z,99.90
2019-06-26T09:51:35.550Z,99.90
2019-06-26T09:54:05.748Z,99.90
2019-06-26T09:56:35.635Z,99.90
2019-06-26T09:59:05.878Z,99.90
2019-06-26T10:01:35.187Z,99.90
2019-06-26T10:04:05.856Z,99.90
2019-06-26T10:06:35.509Z,99.90
2019-06-26T10:09:07.853Z,99.90
2019-06-26T10:11:37.401Z,99.90
2019-06-26T10:14:07.116Z,99.90
2019-06-26T10:16:36.651Z,99.90
2019-06-26T10:19:10.629Z,99.90
2019-06-26T10:21:37.877Z,99.90
2019-06-26T10:24:07.545Z,99.00
2019-06-26T10:26:37.497Z,99.00
2019-06-26T10:29:07.063Z,98.70
2019-06-26T10:31:36.847Z,97.90
2019-06-26T10:34:09.791Z,97.40
2019-06-26T10:36:37.832Z,97.20
2019-06-26T10:39:08.917Z,96.80
2019-06-26T10:41:38.478Z,96.50
2019-06-26T10:44:08.042Z,96.20
2019-06-26T10:46:37.817Z,95.90
2019-06-26T10:49:07.352Z,95.90
2019-06-26T10:51:37.022Z,95.60
2019-06-26T10:54:07.482Z,95.70
2019-06-26T10:56:37.052Z,95.30
2019-06-26T10:59:06.378Z,95.10
2019-06-26T11:01:35.991Z,94.70
2019-06-26T11:04:06.120Z,94.80
2019-06-26T11:06:37.280Z,94.20
2019-06-26T11:09:08.366Z,94.50
2019-06-26T11:11:38.115Z,94.50
2019-06-26T11:14:07.741Z,94.40
2019-06-26T11:16:37.619Z,94.40
2019-06-26T11:19:07.211Z,94.10
2019-06-26T11:21:36.793Z,93.70
2019-06-26T11:24:06.447Z,93.80
2019-06-26T11:26:36.006Z,93.80
2019-06-26T11:29:06.030Z,93.70
2019-06-26T11:31:35.590Z,94.00
2019-06-26T11:34:05.952Z,93.80
2019-06-26T11:36:35.578Z,93.50
2019-06-26T11:39:07.927Z,93.00
2019-06-26T11:41:37.714Z,93.30
2019-06-26T11:44:07.362Z,93.50
2019-06-26T11:46:37.134Z,93.50
2019-06-26T11:49:06.774Z,93.20
2019-06-26T11:51:36.358Z,93.50
2019-06-26T11:54:06.007Z,93.20
2019-06-26T11:56:35.615Z,92.90
2019-06-26T11:59:05.702Z,93.10
2019-06-26T12:01:35.285Z,92.70
2019-06-26T12:04:05.831Z,92.40
2019-06-26T12:06:35.731Z,92.40
2019-06-26T12:09:07.652Z,92.20
2019-06-26T12:11:37.221Z,92.00
2019-06-26T12:14:07.015Z,92.30
2019-06-26T12:16:36.698Z,91.90
2019-06-26T12:19:06.317Z,91.90
2019-06-26T12:21:35.995Z,92.00
2019-06-26T12:24:06.147Z,91.70
2019-06-26T12:26:35.704Z,91.50
2019-06-26T12:29:05.739Z,91.70
2019-06-26T12:31:35.327Z,91.70
2019-06-26T12:34:10.431Z,91.70
2019-06-26T12:36:39.951Z,91.50
2019-06-26T12:39:09.570Z,91.60
2019-06-26T12:41:40.509Z,91.60
2019-06-26T12:44:09.874Z,91.50
2019-06-26T12:46:39.803Z,91.60
2019-06-26T12:49:09.737Z,91.80
2019-06-26T12:51:39.680Z,91.90
2019-06-26T12:54:09.389Z,91.90
2019-06-26T12:56:38.966Z,91.60
2019-06-26T12:59:08.278Z,91.50
2019-06-26T13:01:37.901Z,91.40
2019-06-26T13:04:07.526Z,91.40
2019-06-26T13:06:37.044Z,90.90
2019-06-26T13:09:07.845Z,90.80
2019-06-26T13:11:37.428Z,90.40
2019-06-26T13:14:06.994Z,89.70
2019-06-26T13:16:36.547Z,90.00
2019-06-26T13:19:06.068Z,89.60
2019-06-26T13:21:35.669Z,89.20
2019-06-26T13:24:05.775Z,88.90
2019-06-26T13:26:35.315Z,88.50
2019-06-26T13:29:09.514Z,87.90
2019-06-26T13:31:37.188Z,87.10
2019-06-26T13:34:06.749Z,86.90
2019-06-26T13:36:36.307Z,86.70
2019-06-26T13:39:06.997Z,86.80
2019-06-26T13:41:36.556Z,86.80
2019-06-26T13:44:06.226Z,86.80
2019-06-26T13:46:35.813Z,85.80
2019-06-26T13:49:06.008Z,85.20
2019-06-26T13:51:35.606Z,84.50
2019-06-26T13:54:05.652Z,84.60
2019-06-26T13:56:35.275Z,83.10
2019-06-26T13:59:07.611Z,83.10
2019-06-26T14:01:37.331Z,83.10
2019-06-26T14:04:06.879Z,82.80
2019-06-26T14:06:36.532Z,82.10
2019-06-26T14:09:07.467Z,82.10
2019-06-26T14:11:37.025Z,81.60
2019-06-26T14:14:06.580Z,81.20
2019-06-26T14:16:36.160Z,80.60
2019-06-26T14:19:06.581Z,79.10
2019-06-26T14:21:36.074Z,79.00
2019-06-26T14:24:06.071Z,79.40
2019-06-26T14:26:35.693Z,79.10
2019-06-26T14:29:20.024Z,79.10
2019-06-26T14:31:37.368Z,79.30
2019-06-26T14:34:07.077Z,78.70
2019-06-26T14:36:36.601Z,78.00
2019-06-26T14:39:07.464Z,78.00
2019-06-26T14:41:39.231Z,78.10
2019-06-26T14:44:07.963Z,78.40
2019-06-26T14:46:37.560Z,78.90
2019-06-26T14:49:07.102Z,79.70
2019-06-26T14:51:45.513Z,80.00
2019-06-26T14:54:08.384Z,79.80
2019-06-26T14:56:37.782Z,80.00
2019-06-26T14:59:07.341Z,79.50
2019-06-26T15:01:36.874Z,79.90
2019-06-26T15:04:06.338Z,80.10
2019-06-26T15:06:35.985Z,79.50
2019-06-26T15:09:06.652Z,79.50
2019-06-26T15:11:36.210Z,79.60
2019-06-26T15:14:05.954Z,79.10
2019-06-26T15:16:35.524Z,78.30
2019-06-26T15:19:05.657Z,77.80
2019-06-26T15:21:35.288Z,78.10
2019-06-26T15:24:05.784Z,78.40
2019-06-26T15:26:35.532Z,79.10
2019-06-26T15:29:06.099Z,79.60
2019-06-26T15:31:35.846Z,79.60
2019-06-26T15:34:05.922Z,79.50
2019-06-26T15:36:35.500Z,79.10
2019-06-26T15:39:09.262Z,78.80
2019-06-26T15:41:38.712Z,78.10
2019-06-26T15:44:08.194Z,78.30
2019-06-26T15:46:37.777Z,78.00
2019-06-26T15:49:25.046Z,77.30
2019-06-26T15:51:54.709Z,77.20
2019-06-26T15:54:24.716Z,76.70
2019-06-26T15:56:54.095Z,76.30
2019-06-26T15:59:23.588Z,75.90
2019-06-26T16:01:53.210Z,75.30
2019-06-26T16:04:23.240Z,75.50
2019-06-26T16:06:52.876Z,76.10
2019-06-26T16:09:22.214Z,75.80
2019-06-26T16:11:51.930Z,75.70
2019-06-26T16:14:21.605Z,76.20
2019-06-26T16:16:52.908Z,76.60
2019-06-26T16:19:22.843Z,76.60
2019-06-26T16:21:52.569Z,77.10
2019-06-26T16:24:22.237Z,76.60
2019-06-26T16:26:51.880Z,76.50
2019-06-26T16:29:21.473Z,76.20
2019-06-26T16:31:51.128Z,75.30
2019-06-26T16:34:20.367Z,74.90
2019-06-26T16:36:50.884Z,74.10
2019-06-26T16:39:22.233Z,72.70
2019-06-26T16:41:51.832Z,72.50
2019-06-26T16:44:22.260Z,72.50
2019-06-26T16:46:51.998Z,72.70
2019-06-26T16:49:21.684Z,71.70
2019-06-26T16:51:51.255Z,71.80
2019-06-26T16:54:20.944Z,71.00
2019-06-26T16:56:50.762Z,71.30
2019-06-26T16:59:20.001Z,72.00
2019-06-26T17:01:49.370Z,71.80
2019-06-26T17:04:20.996Z,72.30
2019-06-26T17:06:50.543Z,71.80
2019-06-26T17:09:20.110Z,71.80
2019-06-26T17:11:51.068Z,71.90
2019-06-26T17:14:21.901Z,72.50
2019-06-26T17:16:51.514Z,72.50
2019-06-26T17:19:21.102Z,71.80
2019-06-26T17:21:50.803Z,71.90
2019-06-26T17:24:20.363Z,71.30
2019-06-26T17:26:49.912Z,71.60
2019-06-26T17:29:19.450Z,72.60
2019-06-26T17:31:48.997Z,73.40
2019-06-26T17:34:18.635Z,74.10
2019-06-26T17:36:48.194Z,74.00
2019-06-26T17:39:17.804Z,74.10
2019-06-26T17:41:47.494Z,74.50
2019-06-26T17:44:17.196Z,75.30
2019-06-26T17:46:46.798Z,75.80
2019-06-26T17:49:16.069Z,76.30
2019-06-26T17:51:45.806Z,77.20
2019-06-26T17:54:15.350Z,78.00
2019-06-26T17:56:45.019Z,78.80
2019-06-26T17:59:14.794Z,78.90
2019-06-26T18:01:45.179Z,78.10
2019-06-26T18:04:14.989Z,77.80
2019-06-26T18:06:44.551Z,77.90
2019-06-26T18:09:13.831Z,77.40
2019-06-26T18:11:43.503Z,77.00
2019-06-26T18:14:13.296Z,77.70
2019-06-26T18:16:42.895Z,78.50
2019-06-26T18:19:12.568Z,79.10
2019-06-26T18:21:42.336Z,79.70
2019-06-26T18:24:11.950Z,80.40
2019-06-26T18:26:41.711Z,81.00
2019-06-26T18:29:11.374Z,81.70
2019-06-26T18:31:42.062Z,82.50
2019-06-26T18:34:12.028Z,82.90
2019-06-26T18:36:41.696Z,83.50
2019-06-26T18:39:13.477Z,84.30
2019-06-26T18:41:43.634Z,85.10
2019-06-26T18:44:16.371Z,85.90
2019-06-26T18:46:45.992Z,86.90
2019-06-26T18:49:15.698Z,87.20
2019-06-26T18:51:59.118Z,87.60
2019-06-26T18:54:30.710Z,88.00
2019-06-26T18:57:00.358Z,88.70
2019-06-26T18:59:30.648Z,88.70
2019-06-26T19:02:00.282Z,89.50
2019-06-26T19:04:30.129Z,90.00
2019-06-26T19:06:59.930Z,90.10
2019-06-26T19:09:29.487Z,90.40
2019-06-26T19:11:59.112Z,90.50
2019-06-26T19:14:28.842Z,90.70
2019-06-26T19:16:58.510Z,90.90
2019-06-26T19:19:28.428Z,91.10
2019-06-26T19:21:58.198Z,91.20
2019-06-26T19:24:30.257Z,91.40
2019-06-26T19:27:00.333Z,91.70
2019-06-26T19:29:29.957Z,91.70
2019-06-26T19:31:59.919Z,91.70
2019-06-26T19:34:29.579Z,91.80
2019-06-26T19:36:59.397Z,91.90
2019-06-26T19:39:29.110Z,92.00
2019-06-26T19:41:58.772Z,92.30
2019-06-26T19:44:28.393Z,92.30
2019-06-26T19:46:58.205Z,92.40
2019-06-26T19:49:27.867Z,92.40
2019-06-26T19:51:59.009Z,92.60
2019-06-26T19:54:32.227Z,92.80
2019-06-26T19:57:00.486Z,93.00
2019-06-26T19:59:38.586Z,93.60
2019-06-26T20:02:09.268Z,93.30
2019-06-26T20:04:38.953Z,93.60
2019-06-26T20:07:08.955Z,93.60
2019-06-26T20:10:04.216Z,93.80
2019-06-26T20:12:33.903Z,94.10
2019-06-26T20:15:12.515Z,94.20
2019-06-26T20:18:05.040Z,94.20
2019-06-26T20:20:34.767Z,94.30
2019-06-26T20:23:05.385Z,94.50
2019-06-26T20:25:35.102Z,94.60
2019-06-26T20:28:05.770Z,94.80
2019-06-26T20:30:43.945Z,95.00
2019-06-26T20:33:58.336Z,95.20
2019-06-26T20:36:27.661Z,95.20
2019-06-26T20:39:18.003Z,95.10
2019-06-26T20:41:49.278Z,95.30
2019-06-26T20:44:32.448Z,95.20
2019-06-26T20:48:00.295Z,95.70
2019-06-26T20:50:58.681Z,95.70
2019-06-26T20:53:42.128Z,95.40
2019-06-26T20:56:11.789Z,95.50
2019-06-26T20:59:04.013Z,96.10
2019-06-26T21:01:43.052Z,96.20
2019-06-26T21:04:13.420Z,96.20
2019-06-26T21:06:45.768Z,96.20
2019-06-26T21:09:16.264Z,96.00
2019-06-26T21:11:46.362Z,96.50
2019-06-26T21:14:18.076Z,96.60
2019-06-26T21:16:51.857Z,96.80
2019-06-26T21:19:24.182Z,96.90
2019-06-26T21:21:56.549Z,96.90
2019-06-26T21:24:26.737Z,97.00
2019-06-26T21:26:58.344Z,97.00
2019-06-26T21:29:29.544Z,97.10
2019-06-26T21:32:00.246Z,97.20
2019-06-26T21:34:41.926Z,96.80
2019-06-26T21:37:17.624Z,97.30
2019-06-26T21:39:47.470Z,97.40
2019-06-26T21:42:45.823Z,97.10
2019-06-26T21:45:21.981Z,97.00
2019-06-26T21:47:55.924Z,97.50
2019-06-26T21:50:29.328Z,97.70
2019-06-26T21:53:01.351Z,97.80
2019-06-26T21:55:34.688Z,97.70
2019-06-26T21:58:02.816Z,97.80
2019-06-26T22:00:34.553Z,98.00
2019-06-26T22:03:10.332Z,98.10
2019-06-26T22:05:41.575Z,98.10
2019-06-26T22:08:13.678Z,98.20
2019-06-26T22:10:43.717Z,98.50
2019-06-26T22:13:16.934Z,98.60
2019-06-26T22:15:46.990Z,98.70
2019-06-26T22:18:17.814Z,98.40
2019-06-26T22:20:50.791Z,98.80
2019-06-26T22:23:23.536Z,98.80
2019-06-26T22:25:53.194Z,98.80
2019-06-26T22:28:23.210Z,98.80
2019-06-26T22:30:52.867Z,98.90
2019-06-26T22:33:22.232Z,99.00
2019-06-26T22:35:51.866Z,99.00
2019-06-26T22:38:21.621Z,98.90
2019-06-26T22:40:51.333Z,99.00
2019-06-26T22:43:23.815Z,99.10
2019-06-26T22:45:56.235Z,99.10
2019-06-26T22:48:27.801Z,99.20
2019-06-26T22:50:57.919Z,99.20
2019-06-26T22:53:28.501Z,99.40
2019-06-26T22:56:08.013Z,99.50
2019-06-26T22:58:37.111Z,99.50
2019-06-26T23:01:10.364Z,99.50
2019-06-26T23:03:41.471Z,99.50
2019-06-26T23:06:11.118Z,99.50
2019-06-26T23:11:38.451Z,99.50
2019-06-26T23:14:10.412Z,99.50
2019-06-26T23:16:40.055Z,99.60
2019-06-26T23:19:11.048Z,99.60
2019-06-26T23:21:40.705Z,99.60
2019-06-26T23:24:13.072Z,99.60
2019-06-26T23:26:42.686Z,99.60
2019-06-26T23:29:16.658Z,99.60
2019-06-26T23:31:47.099Z,99.80
2019-06-26T23:34:20.206Z,99.70
2019-06-26T23:36:49.781Z,99.60
2019-06-26T23:39:22.053Z,99.60
2019-06-26T23:41:51.654Z,99.70
2019-06-26T23:44:23.935Z,99.30
2019-06-26T23:46:54.689Z,99.70
2019-06-26T23:49:43.782Z,99.70
2019-06-26T23:52:36.894Z,99.30
2019-06-26T23:55:03.129Z,99.70
2019-06-26T23:57:35.503Z,99.80
